Pagrindinis puslapis
METAR-TAF:

METAR-TAF

Oro uostai :

Kampos dos Goitakazesas, Rio de Janeiro, Brazilija

platuma: 21-45S, ilguma: 041-20W, Aukštis: 11 m

Dabartinis oras

Ataskaita buvo paskelbta 1 valandą ir 53 minutes, ne 21:00 UTC
Vėjas 16 kt iš Rytų/Šiaurės Rytų
Temperatūra 24°C
Drėgmė 78%
Slėgis 1016 hPa
Matomumas 10 km arba daugiau
nėra debesų žemiau 1500 m ir nėra kamuolinių lietaus debesų

METAR: SBCP 162100Z 06016KT CAVOK 24/20 Q1016

Laikas: 19:53 (22:53 UTC)

Prognozė

Ataskaita buvo paskelbta 6 valandos ir 23 minutes, ne 16:30 UTC
Prognozė galioja nuo 16 metu 18 UTC su 17 metu 06 UTC
Vėjas 15 kt iš Rytų
Matomumas 10 km arba daugiau
Mažai debesys ne aukštis 2500 ft
Tapsmas
nuo 16 metu 21 UTC su 16 metu 23 UTC
Vėjas 10 kt iš Šiaurės Rytų

TAF: SBCP 161630Z 1618/1706 08015KT 9999 FEW025 TX29/1618Z TN23/1624Z BECMG 1621/1623 05010KT RMK PGB

Orai ataskaitas ir orų prognozės (METAR, TAF).

turimą stotys yra geltonos ir raudonos taškus žemėlapyje.

Perkelti pele per norėdami pamatyti stoties vardą.

Tada spustelėkite, norėdami matyti oro stebėjimo ir prognozės.

Norėdami pakeisti žemėlapį: spustelėkite ant žalios mygtukų su juodo kryžiaus žemyn,; žalią mygtuką su brūkšneliu, jei norite nutolinti; arba žalių rodyklių gretimoms žemėlapius.


METAR-TAF: